sensor_id;sensor_type;location;lat;lon;timestamp;P1;durP1;ratioP1;P2;durP2;ratioP2
28483;SDS011;15704;48.834;8.736;2024-02-14T00:00:58;1.70;;;1.13;;
28483;SDS011;15704;48.834;8.736;2024-02-14T00:03:25;2.22;;;1.40;;
28483;SDS011;15704;48.834;8.736;2024-02-14T00:05:53;1.58;;;1.20;;
28483;SDS011;15704;48.834;8.736;2024-02-14T00:08:21;2.92;;;1.50;;
28483;SDS011;15704;48.834;8.736;2024-02-14T00:10:48;2.33;;;1.40;;
28483;SDS011;15704;48.834;8.736;2024-02-14T00:13:15;1.92;;;1.23;;
28483;SDS011;15704;48.834;8.736;2024-02-14T00:15:44;2.72;;;1.17;;
28483;SDS011;15704;48.834;8.736;2024-02-14T00:18:12;2.38;;;1.55;;
28483;SDS011;15704;48.834;8.736;2024-02-14T00:20:40;1.50;;;1.05;;
28483;SDS011;15704;48.834;8.736;2024-02-14T00:23:07;1.55;;;1.17;;
28483;SDS011;15704;48.834;8.736;2024-02-14T00:25:34;2.80;;;1.55;;
28483;SDS011;15704;48.834;8.736;2024-02-14T00:28:04;2.17;;;1.25;;
28483;SDS011;15704;48.834;8.736;2024-02-14T00:30:32;1.85;;;1.25;;
28483;SDS011;15704;48.834;8.736;2024-02-14T00:32:58;2.00;;;1.20;;
28483;SDS011;15704;48.834;8.736;2024-02-14T00:35:25;2.40;;;1.25;;
28483;SDS011;15704;48.834;8.736;2024-02-14T00:37:53;2.15;;;1.40;;
28483;SDS011;15704;48.834;8.736;2024-02-14T00:40:20;2.03;;;1.27;;
28483;SDS011;15704;48.834;8.736;2024-02-14T00:42:46;2.88;;;1.38;;
28483;SDS011;15704;48.834;8.736;2024-02-14T00:45:13;1.85;;;1.45;;
28483;SDS011;15704;48.834;8.736;2024-02-14T00:47:41;1.52;;;1.05;;
28483;SDS011;15704;48.834;8.736;2024-02-14T00:50:08;2.50;;;1.38;;
28483;SDS011;15704;48.834;8.736;2024-02-14T00:52:35;2.72;;;1.30;;
28483;SDS011;15704;48.834;8.736;2024-02-14T00:55:02;1.77;;;1.30;;
28483;SDS011;15704;48.834;8.736;2024-02-14T00:57:30;1.77;;;1.20;;
28483;SDS011;15704;48.834;8.736;2024-02-14T00:59:58;2.38;;;1.23;;
28483;SDS011;15704;48.834;8.736;2024-02-14T01:02:26;1.85;;;1.17;;
28483;SDS011;15704;48.834;8.736;2024-02-14T01:04:53;2.15;;;1.40;;
28483;SDS011;15704;48.834;8.736;2024-02-14T01:07:20;1.80;;;1.20;;
28483;SDS011;15704;48.834;8.736;2024-02-14T01:09:47;2.40;;;1.33;;
28483;SDS011;15704;48.834;8.736;2024-02-14T01:12:14;1.80;;;1.10;;
28483;SDS011;15704;48.834;8.736;2024-02-14T01:14:41;2.35;;;1.20;;
28483;SDS011;15704;48.834;8.736;2024-02-14T01:17:09;2.10;;;1.20;;
28483;SDS011;15704;48.834;8.736;2024-02-14T01:19:35;1.90;;;1.10;;
28483;SDS011;15704;48.834;8.736;2024-02-14T01:22:03;1.45;;;1.08;;
28483;SDS011;15704;48.834;8.736;2024-02-14T01:24:32;1.42;;;1.08;;
28483;SDS011;15704;48.834;8.736;2024-02-14T01:26:59;2.25;;;1.50;;
28483;SDS011;15704;48.834;8.736;2024-02-14T01:29:26;1.65;;;1.23;;
28483;SDS011;15704;48.834;8.736;2024-02-14T01:31:54;2.75;;;1.38;;
28483;SDS011;15704;48.834;8.736;2024-02-14T01:34:21;2.63;;;1.40;;
28483;SDS011;15704;48.834;8.736;2024-02-14T01:36:49;1.60;;;1.30;;
28483;SDS011;15704;48.834;8.736;2024-02-14T01:39:15;1.75;;;1.35;;
28483;SDS011;15704;48.834;8.736;2024-02-14T01:41:45;1.90;;;1.48;;
28483;SDS011;15704;48.834;8.736;2024-02-14T01:44:15;2.10;;;1.23;;
28483;SDS011;15704;48.834;8.736;2024-02-14T01:46:43;1.52;;;1.02;;
28483;SDS011;15704;48.834;8.736;2024-02-14T01:49:10;1.80;;;1.20;;
28483;SDS011;15704;48.834;8.736;2024-02-14T01:51:42;2.20;;;1.23;;
28483;SDS011;15704;48.834;8.736;2024-02-14T01:54:11;2.13;;;1.30;;
28483;SDS011;15704;48.834;8.736;2024-02-14T01:56:39;1.00;;;0.82;;
28483;SDS011;15704;48.834;8.736;2024-02-14T01:59:06;1.58;;;1.08;;
28483;SDS011;15704;48.834;8.736;2024-02-14T02:01:35;1.42;;;1.17;;
28483;SDS011;15704;48.834;8.736;2024-02-14T02:04:03;1.67;;;1.27;;
28483;SDS011;15704;48.834;8.736;2024-02-14T02:06:30;1.85;;;1.10;;
28483;SDS011;15704;48.834;8.736;2024-02-14T02:08:58;1.67;;;1.40;;
28483;SDS011;15704;48.834;8.736;2024-02-14T02:11:26;1.55;;;1.10;;
28483;SDS011;15704;48.834;8.736;2024-02-14T02:13:53;2.17;;;1.20;;
28483;SDS011;15704;48.834;8.736;2024-02-14T02:16:21;1.60;;;1.20;;
28483;SDS011;15704;48.834;8.736;2024-02-14T02:18:48;1.80;;;1.20;;
28483;SDS011;15704;48.834;8.736;2024-02-14T02:21:16;1.70;;;1.30;;
28483;SDS011;15704;48.834;8.736;2024-02-14T02:23:46;1.70;;;1.08;;
28483;SDS011;15704;48.834;8.736;2024-02-14T02:26:13;2.33;;;1.30;;
28483;SDS011;15704;48.834;8.736;2024-02-14T02:28:41;1.40;;;1.05;;
28483;SDS011;15704;48.834;8.736;2024-02-14T02:31:09;1.40;;;1.08;;
28483;SDS011;15704;48.834;8.736;2024-02-14T02:33:36;1.60;;;1.15;;
28483;SDS011;15704;48.834;8.736;2024-02-14T02:36:03;1.77;;;1.30;;
28483;SDS011;15704;48.834;8.736;2024-02-14T02:38:31;1.42;;;1.10;;
28483;SDS011;15704;48.834;8.736;2024-02-14T02:40:57;1.27;;;1.15;;
28483;SDS011;15704;48.834;8.736;2024-02-14T02:43:24;1.85;;;1.25;;
28483;SDS011;15704;48.834;8.736;2024-02-14T02:45:51;2.30;;;1.50;;
28483;SDS011;15704;48.834;8.736;2024-02-14T02:48:18;1.85;;;1.20;;
28483;SDS011;15704;48.834;8.736;2024-02-14T02:50:50;2.93;;;1.53;;
28483;SDS011;15704;48.834;8.736;2024-02-14T02:53:20;1.40;;;1.02;;
28483;SDS011;15704;48.834;8.736;2024-02-14T02:55:47;1.70;;;1.33;;
28483;SDS011;15704;48.834;8.736;2024-02-14T02:58:17;2.33;;;1.38;;
28483;SDS011;15704;48.834;8.736;2024-02-14T03:00:47;2.17;;;1.40;;
28483;SDS011;15704;48.834;8.736;2024-02-14T03:03:15;1.50;;;1.10;;
28483;SDS011;15704;48.834;8.736;2024-02-14T03:05:42;1.80;;;1.13;;
28483;SDS011;15704;48.834;8.736;2024-02-14T03:08:12;2.15;;;1.35;;
28483;SDS011;15704;48.834;8.736;2024-02-14T03:10:41;1.50;;;1.20;;
28483;SDS011;15704;48.834;8.736;2024-02-14T03:13:09;1.73;;;1.23;;
28483;SDS011;15704;48.834;8.736;2024-02-14T03:15:38;1.42;;;1.10;;
28483;SDS011;15704;48.834;8.736;2024-02-14T03:18:05;1.65;;;1.20;;
28483;SDS011;15704;48.834;8.736;2024-02-14T03:20:36;1.10;;;1.00;;
28483;SDS011;15704;48.834;8.736;2024-02-14T03:23:03;2.47;;;1.40;;
28483;SDS011;15704;48.834;8.736;2024-02-14T03:25:30;1.38;;;1.15;;
28483;SDS011;15704;48.834;8.736;2024-02-14T03:27:57;1.33;;;1.10;;
28483;SDS011;15704;48.834;8.736;2024-02-14T03:30:24;1.58;;;1.35;;
28483;SDS011;15704;48.834;8.736;2024-02-14T03:32:52;2.67;;;1.52;;
28483;SDS011;15704;48.834;8.736;2024-02-14T03:35:19;1.30;;;1.10;;
28483;SDS011;15704;48.834;8.736;2024-02-14T03:37:48;1.27;;;1.15;;
28483;SDS011;15704;48.834;8.736;2024-02-14T03:40:19;1.50;;;1.30;;
28483;SDS011;15704;48.834;8.736;2024-02-14T03:42:48;1.55;;;1.20;;
28483;SDS011;15704;48.834;8.736;2024-02-14T03:45:15;1.58;;;1.10;;
28483;SDS011;15704;48.834;8.736;2024-02-14T03:47:42;1.25;;;1.15;;
28483;SDS011;15704;48.834;8.736;2024-02-14T03:50:09;2.00;;;1.30;;
28483;SDS011;15704;48.834;8.736;2024-02-14T03:52:37;2.47;;;1.40;;
28483;SDS011;15704;48.834;8.736;2024-02-14T03:55:04;2.00;;;1.45;;
28483;SDS011;15704;48.834;8.736;2024-02-14T03:57:32;1.70;;;1.30;;
28483;SDS011;15704;48.834;8.736;2024-02-14T04:00:01;1.85;;;1.40;;
28483;SDS011;15704;48.834;8.736;2024-02-14T04:02:29;1.85;;;1.38;;
28483;SDS011;15704;48.834;8.736;2024-02-14T04:04:58;2.53;;;1.58;;
28483;SDS011;15704;48.834;8.736;2024-02-14T04:07:25;2.00;;;1.35;;
28483;SDS011;15704;48.834;8.736;2024-02-14T04:09:53;2.85;;;1.65;;
28483;SDS011;15704;48.834;8.736;2024-02-14T04:12:20;1.52;;;1.33;;
28483;SDS011;15704;48.834;8.736;2024-02-14T04:14:47;2.92;;;2.05;;
28483;SDS011;15704;48.834;8.736;2024-02-14T04:17:14;2.25;;;1.35;;
28483;SDS011;15704;48.834;8.736;2024-02-14T04:19:41;2.70;;;1.60;;
28483;SDS011;15704;48.834;8.736;2024-02-14T04:22:08;1.90;;;1.40;;
28483;SDS011;15704;48.834;8.736;2024-02-14T04:24:35;2.95;;;1.58;;
28483;SDS011;15704;48.834;8.736;2024-02-14T04:27:02;1.95;;;1.30;;
28483;SDS011;15704;48.834;8.736;2024-02-14T04:29:31;2.33;;;1.65;;
28483;SDS011;15704;48.834;8.736;2024-02-14T04:32:00;2.65;;;1.40;;
28483;SDS011;15704;48.834;8.736;2024-02-14T04:34:27;2.25;;;1.80;;
28483;SDS011;15704;48.834;8.736;2024-02-14T04:36:55;2.28;;;1.50;;
28483;SDS011;15704;48.834;8.736;2024-02-14T04:39:23;1.85;;;1.50;;
28483;SDS011;15704;48.834;8.736;2024-02-14T04:41:50;2.20;;;1.48;;
28483;SDS011;15704;48.834;8.736;2024-02-14T04:44:27;1.92;;;1.42;;
28483;SDS011;15704;48.834;8.736;2024-02-14T04:46:58;2.55;;;1.63;;
28483;SDS011;15704;48.834;8.736;2024-02-14T04:49:26;2.35;;;1.75;;
28483;SDS011;15704;48.834;8.736;2024-02-14T04:51:55;2.53;;;1.75;;
28483;SDS011;15704;48.834;8.736;2024-02-14T04:54:22;1.73;;;1.38;;
28483;SDS011;15704;48.834;8.736;2024-02-14T04:56:49;1.88;;;1.55;;
28483;SDS011;15704;48.834;8.736;2024-02-14T04:59:22;1.52;;;1.35;;
28483;SDS011;15704;48.834;8.736;2024-02-14T05:01:49;2.85;;;1.60;;
28483;SDS011;15704;48.834;8.736;2024-02-14T05:04:18;2.15;;;1.52;;
28483;SDS011;15704;48.834;8.736;2024-02-14T05:06:45;2.75;;;1.73;;
28483;SDS011;15704;48.834;8.736;2024-02-14T05:09:12;2.60;;;1.60;;
28483;SDS011;15704;48.834;8.736;2024-02-14T05:11:41;2.00;;;1.40;;
28483;SDS011;15704;48.834;8.736;2024-02-14T05:14:08;2.08;;;1.50;;
28483;SDS011;15704;48.834;8.736;2024-02-14T05:16:35;2.78;;;1.80;;
28483;SDS011;15704;48.834;8.736;2024-02-14T05:19:02;2.42;;;1.42;;
28483;SDS011;15704;48.834;8.736;2024-02-14T05:21:29;1.75;;;1.42;;
28483;SDS011;15704;48.834;8.736;2024-02-14T05:23:56;2.63;;;1.63;;
28483;SDS011;15704;48.834;8.736;2024-02-14T05:26:23;2.20;;;1.67;;
28483;SDS011;15704;48.834;8.736;2024-02-14T05:28:50;2.65;;;1.75;;
28483;SDS011;15704;48.834;8.736;2024-02-14T05:31:17;1.80;;;1.50;;
28483;SDS011;15704;48.834;8.736;2024-02-14T05:33:44;2.08;;;1.77;;
28483;SDS011;15704;48.834;8.736;2024-02-14T05:36:11;2.28;;;1.50;;
28483;SDS011;15704;48.834;8.736;2024-02-14T05:38:38;2.28;;;1.35;;
28483;SDS011;15704;48.834;8.736;2024-02-14T05:41:05;2.00;;;1.42;;
28483;SDS011;15704;48.834;8.736;2024-02-14T05:43:34;1.73;;;1.40;;
28483;SDS011;15704;48.834;8.736;2024-02-14T05:46:01;2.05;;;1.55;;
28483;SDS011;15704;48.834;8.736;2024-02-14T05:48:27;1.85;;;1.35;;
28483;SDS011;15704;48.834;8.736;2024-02-14T05:50:55;2.13;;;1.50;;
28483;SDS011;15704;48.834;8.736;2024-02-14T05:53:21;1.65;;;1.42;;
28483;SDS011;15704;48.834;8.736;2024-02-14T05:55:48;1.90;;;1.35;;
28483;SDS011;15704;48.834;8.736;2024-02-14T05:58:15;1.90;;;1.30;;
28483;SDS011;15704;48.834;8.736;2024-02-14T06:00:42;2.50;;;1.48;;
28483;SDS011;15704;48.834;8.736;2024-02-14T06:03:09;1.50;;;1.40;;
28483;SDS011;15704;48.834;8.736;2024-02-14T06:05:36;2.45;;;1.48;;
28483;SDS011;15704;48.834;8.736;2024-02-14T06:08:03;1.95;;;1.40;;
28483;SDS011;15704;48.834;8.736;2024-02-14T06:10:30;1.92;;;1.20;;
28483;SDS011;15704;48.834;8.736;2024-02-14T06:12:57;2.13;;;1.60;;
28483;SDS011;15704;48.834;8.736;2024-02-14T06:15:25;1.75;;;1.35;;
28483;SDS011;15704;48.834;8.736;2024-02-14T06:17:52;1.90;;;1.40;;
28483;SDS011;15704;48.834;8.736;2024-02-14T06:20:19;1.52;;;1.35;;
28483;SDS011;15704;48.834;8.736;2024-02-14T06:22:46;1.40;;;1.20;;
28483;SDS011;15704;48.834;8.736;2024-02-14T06:25:26;2.17;;;1.60;;
28483;SDS011;15704;48.834;8.736;2024-02-14T06:27:53;1.88;;;1.25;;
28483;SDS011;15704;48.834;8.736;2024-02-14T06:30:20;1.73;;;1.20;;
28483;SDS011;15704;48.834;8.736;2024-02-14T06:32:47;1.80;;;1.17;;
28483;SDS011;15704;48.834;8.736;2024-02-14T06:35:15;2.05;;;1.48;;
28483;SDS011;15704;48.834;8.736;2024-02-14T06:37:46;2.53;;;1.50;;
28483;SDS011;15704;48.834;8.736;2024-02-14T06:40:25;1.58;;;1.33;;
28483;SDS011;15704;48.834;8.736;2024-02-14T06:42:53;1.65;;;1.30;;
28483;SDS011;15704;48.834;8.736;2024-02-14T06:45:21;1.88;;;1.30;;
28483;SDS011;15704;48.834;8.736;2024-02-14T06:47:48;1.95;;;1.40;;
28483;SDS011;15704;48.834;8.736;2024-02-14T06:50:15;2.05;;;1.45;;
28483;SDS011;15704;48.834;8.736;2024-02-14T06:52:41;1.67;;;1.35;;
28483;SDS011;15704;48.834;8.736;2024-02-14T06:55:08;2.17;;;1.63;;
28483;SDS011;15704;48.834;8.736;2024-02-14T06:57:35;1.92;;;1.50;;
28483;SDS011;15704;48.834;8.736;2024-02-14T07:00:05;2.10;;;1.30;;
28483;SDS011;15704;48.834;8.736;2024-02-14T07:02:35;1.83;;;1.40;;
28483;SDS011;15704;48.834;8.736;2024-02-14T07:05:02;2.97;;;1.63;;
28483;SDS011;15704;48.834;8.736;2024-02-14T07:07:30;1.77;;;1.42;;
28483;SDS011;15704;48.834;8.736;2024-02-14T07:09:57;1.98;;;1.35;;
28483;SDS011;15704;48.834;8.736;2024-02-14T07:12:24;1.50;;;1.40;;
28483;SDS011;15704;48.834;8.736;2024-02-14T07:14:52;1.60;;;1.30;;
28483;SDS011;15704;48.834;8.736;2024-02-14T07:17:19;1.95;;;1.42;;
28483;SDS011;15704;48.834;8.736;2024-02-14T07:19:46;1.35;;;1.20;;
28483;SDS011;15704;48.834;8.736;2024-02-14T07:22:16;1.80;;;1.35;;
28483;SDS011;15704;48.834;8.736;2024-02-14T07:24:45;1.05;;;0.95;;
28483;SDS011;15704;48.834;8.736;2024-02-14T07:27:13;1.38;;;1.23;;
28483;SDS011;15704;48.834;8.736;2024-02-14T07:29:41;1.35;;;1.10;;
28483;SDS011;15704;48.834;8.736;2024-02-14T07:32:08;2.67;;;1.40;;
28483;SDS011;15704;48.834;8.736;2024-02-14T07:34:38;1.52;;;1.40;;
28483;SDS011;15704;48.834;8.736;2024-02-14T07:37:06;1.63;;;1.20;;
28483;SDS011;15704;48.834;8.736;2024-02-14T07:39:33;2.42;;;1.20;;
28483;SDS011;15704;48.834;8.736;2024-02-14T07:42:04;1.35;;;1.10;;
28483;SDS011;15704;48.834;8.736;2024-02-14T07:44:31;1.73;;;1.23;;
28483;SDS011;15704;48.834;8.736;2024-02-14T07:46:59;1.77;;;1.13;;
28483;SDS011;15704;48.834;8.736;2024-02-14T07:49:30;1.73;;;1.27;;
28483;SDS011;15704;48.834;8.736;2024-02-14T07:51:57;1.30;;;1.17;;
28483;SDS011;15704;48.834;8.736;2024-02-14T07:54:25;1.63;;;1.17;;
28483;SDS011;15704;48.834;8.736;2024-02-14T07:56:52;1.45;;;1.27;;
28483;SDS011;15704;48.834;8.736;2024-02-14T07:59:19;1.42;;;1.20;;
28483;SDS011;15704;48.834;8.736;2024-02-14T08:01:47;1.73;;;1.20;;
28483;SDS011;15704;48.834;8.736;2024-02-14T08:04:14;1.58;;;1.30;;
28483;SDS011;15704;48.834;8.736;2024-02-14T08:06:44;1.35;;;1.23;;
28483;SDS011;15704;48.834;8.736;2024-02-14T08:09:12;1.73;;;1.15;;
28483;SDS011;15704;48.834;8.736;2024-02-14T08:11:39;1.50;;;1.20;;
28483;SDS011;15704;48.834;8.736;2024-02-14T08:14:07;2.47;;;1.50;;
28483;SDS011;15704;48.834;8.736;2024-02-14T08:16:33;3.65;;;1.40;;
28483;SDS011;15704;48.834;8.736;2024-02-14T08:19:03;1.15;;;1.05;;
28483;SDS011;15704;48.834;8.736;2024-02-14T08:21:30;1.10;;;1.00;;
28483;SDS011;15704;48.834;8.736;2024-02-14T08:23:58;1.35;;;1.13;;
28483;SDS011;15704;48.834;8.736;2024-02-14T08:26:27;1.15;;;0.93;;
28483;SDS011;15704;48.834;8.736;2024-02-14T08:28:54;2.75;;;1.88;;
28483;SDS011;15704;48.834;8.736;2024-02-14T08:31:21;1.55;;;1.10;;
28483;SDS011;15704;48.834;8.736;2024-02-14T08:33:49;1.10;;;1.00;;
28483;SDS011;15704;48.834;8.736;2024-02-14T08:36:17;1.60;;;1.02;;
28483;SDS011;15704;48.834;8.736;2024-02-14T08:38:46;1.30;;;1.10;;
28483;SDS011;15704;48.834;8.736;2024-02-14T08:41:14;1.27;;;1.02;;
28483;SDS011;15704;48.834;8.736;2024-02-14T08:43:41;1.27;;;1.00;;
28483;SDS011;15704;48.834;8.736;2024-02-14T08:46:12;1.48;;;1.08;;
28483;SDS011;15704;48.834;8.736;2024-02-14T08:48:40;1.67;;;1.10;;
28483;SDS011;15704;48.834;8.736;2024-02-14T08:51:14;1.20;;;1.10;;
28483;SDS011;15704;48.834;8.736;2024-02-14T08:53:42;1.02;;;0.93;;
28483;SDS011;15704;48.834;8.736;2024-02-14T08:56:10;1.92;;;1.02;;
28483;SDS011;15704;48.834;8.736;2024-02-14T08:58:37;1.75;;;1.00;;
28483;SDS011;15704;48.834;8.736;2024-02-14T09:01:04;1.35;;;0.95;;
28483;SDS011;15704;48.834;8.736;2024-02-14T09:03:40;1.30;;;1.10;;
28483;SDS011;15704;48.834;8.736;2024-02-14T09:06:15;1.30;;;1.17;;
28483;SDS011;15704;48.834;8.736;2024-02-14T09:08:46;1.20;;;1.00;;
28483;SDS011;15704;48.834;8.736;2024-02-14T09:11:13;1.48;;;1.20;;
28483;SDS011;15704;48.834;8.736;2024-02-14T09:13:40;1.50;;;1.10;;
28483;SDS011;15704;48.834;8.736;2024-02-14T09:16:08;1.67;;;1.05;;
28483;SDS011;15704;48.834;8.736;2024-02-14T09:18:35;1.55;;;1.08;;
28483;SDS011;15704;48.834;8.736;2024-02-14T09:21:03;1.08;;;0.98;;
28483;SDS011;15704;48.834;8.736;2024-02-14T09:23:32;1.00;;;0.90;;
28483;SDS011;15704;48.834;8.736;2024-02-14T09:25:59;1.27;;;0.90;;
28483;SDS011;15704;48.834;8.736;2024-02-14T09:28:28;1.33;;;0.90;;
28483;SDS011;15704;48.834;8.736;2024-02-14T09:30:55;1.05;;;0.95;;
28483;SDS011;15704;48.834;8.736;2024-02-14T09:33:25;1.17;;;1.05;;
28483;SDS011;15704;48.834;8.736;2024-02-14T09:35:52;1.00;;;0.90;;
28483;SDS011;15704;48.834;8.736;2024-02-14T09:38:19;1.33;;;1.10;;
28483;SDS011;15704;48.834;8.736;2024-02-14T09:40:46;1.35;;;1.05;;
28483;SDS011;15704;48.834;8.736;2024-02-14T09:43:25;1.20;;;0.90;;
28483;SDS011;15704;48.834;8.736;2024-02-14T09:45:59;1.30;;;1.00;;
28483;SDS011;15704;48.834;8.736;2024-02-14T09:48:25;1.08;;;0.98;;
28483;SDS011;15704;48.834;8.736;2024-02-14T09:50:54;1.42;;;1.00;;
28483;SDS011;15704;48.834;8.736;2024-02-14T09:53:23;0.80;;;0.70;;
28483;SDS011;15704;48.834;8.736;2024-02-14T09:55:50;0.70;;;0.70;;
28483;SDS011;15704;48.834;8.736;2024-02-14T09:58:17;1.58;;;1.00;;
28483;SDS011;15704;48.834;8.736;2024-02-14T10:00:44;1.30;;;1.00;;
28483;SDS011;15704;48.834;8.736;2024-02-14T10:03:11;0.70;;;0.70;;
28483;SDS011;15704;48.834;8.736;2024-02-14T10:05:41;0.85;;;0.80;;
28483;SDS011;15704;48.834;8.736;2024-02-14T10:08:08;1.10;;;0.98;;
28483;SDS011;15704;48.834;8.736;2024-02-14T10:10:37;0.98;;;0.88;;
28483;SDS011;15704;48.834;8.736;2024-02-14T10:13:05;0.75;;;0.75;;
28483;SDS011;15704;48.834;8.736;2024-02-14T10:15:33;0.90;;;0.82;;
28483;SDS011;15704;48.834;8.736;2024-02-14T10:18:00;1.08;;;0.90;;
28483;SDS011;15704;48.834;8.736;2024-02-14T10:20:28;1.63;;;1.25;;
28483;SDS011;15704;48.834;8.736;2024-02-14T10:23:00;1.10;;;1.00;;
28483;SDS011;15704;48.834;8.736;2024-02-14T10:25:29;1.17;;;1.00;;
28483;SDS011;15704;48.834;8.736;2024-02-14T10:28:06;1.13;;;0.90;;
28483;SDS011;15704;48.834;8.736;2024-02-14T10:30:37;1.05;;;0.80;;
28483;SDS011;15704;48.834;8.736;2024-02-14T10:33:07;1.27;;;1.10;;
28483;SDS011;15704;48.834;8.736;2024-02-14T10:35:49;0.90;;;0.80;;
28483;SDS011;15704;48.834;8.736;2024-02-14T10:38:18;0.80;;;0.80;;
28483;SDS011;15704;48.834;8.736;2024-02-14T10:40:47;1.05;;;0.90;;
28483;SDS011;15704;48.834;8.736;2024-02-14T10:43:14;0.98;;;0.88;;
28483;SDS011;15704;48.834;8.736;2024-02-14T10:45:40;1.42;;;1.00;;
28483;SDS011;15704;48.834;8.736;2024-02-14T10:48:11;1.27;;;0.95;;
28483;SDS011;15704;48.834;8.736;2024-02-14T10:50:40;0.82;;;0.82;;
28483;SDS011;15704;48.834;8.736;2024-02-14T10:53:10;1.35;;;0.73;;
28483;SDS011;15704;48.834;8.736;2024-02-14T10:55:45;1.30;;;1.00;;
28483;SDS011;15704;48.834;8.736;2024-02-14T10:58:15;1.10;;;1.00;;
28483;SDS011;15704;48.834;8.736;2024-02-14T11:00:46;0.98;;;0.93;;
28483;SDS011;15704;48.834;8.736;2024-02-14T11:03:14;0.80;;;0.73;;
28483;SDS011;15704;48.834;8.736;2024-02-14T11:05:47;1.13;;;0.80;;
28483;SDS011;15704;48.834;8.736;2024-02-14T11:08:19;1.38;;;0.88;;
28483;SDS011;15704;48.834;8.736;2024-02-14T11:10:56;0.68;;;0.68;;
28483;SDS011;15704;48.834;8.736;2024-02-14T11:13:26;1.38;;;1.00;;
28483;SDS011;15704;48.834;8.736;2024-02-14T11:15:54;1.00;;;0.90;;
28483;SDS011;15704;48.834;8.736;2024-02-14T11:18:25;1.15;;;1.05;;
28483;SDS011;15704;48.834;8.736;2024-02-14T11:20:57;0.98;;;0.77;;
28483;SDS011;15704;48.834;8.736;2024-02-14T11:23:24;0.80;;;0.73;;
28483;SDS011;15704;48.834;8.736;2024-02-14T11:26:03;1.00;;;0.77;;
28483;SDS011;15704;48.834;8.736;2024-02-14T11:28:36;1.30;;;0.90;;
28483;SDS011;15704;48.834;8.736;2024-02-14T11:31:07;0.60;;;0.60;;
28483;SDS011;15704;48.834;8.736;2024-02-14T11:33:36;0.80;;;0.80;;
28483;SDS011;15704;48.834;8.736;2024-02-14T11:36:07;1.02;;;0.95;;
28483;SDS011;15704;48.834;8.736;2024-02-14T11:38:39;0.93;;;0.85;;
28483;SDS011;15704;48.834;8.736;2024-02-14T11:41:08;1.08;;;0.88;;
28483;SDS011;15704;48.834;8.736;2024-02-14T11:43:37;0.82;;;0.70;;
28483;SDS011;15704;48.834;8.736;2024-02-14T11:46:06;0.73;;;0.70;;
28483;SDS011;15704;48.834;8.736;2024-02-14T11:48:33;0.70;;;0.70;;
28483;SDS011;15704;48.834;8.736;2024-02-14T11:51:06;0.88;;;0.80;;
28483;SDS011;15704;48.834;8.736;2024-02-14T11:53:36;1.05;;;0.93;;
28483;SDS011;15704;48.834;8.736;2024-02-14T11:56:05;0.90;;;0.70;;
28483;SDS011;15704;48.834;8.736;2024-02-14T11:58:33;0.80;;;0.70;;
28483;SDS011;15704;48.834;8.736;2024-02-14T12:01:02;0.60;;;0.60;;
28483;SDS011;15704;48.834;8.736;2024-02-14T12:03:32;0.60;;;0.60;;
28483;SDS011;15704;48.834;8.736;2024-02-14T12:05:59;1.00;;;0.88;;
28483;SDS011;15704;48.834;8.736;2024-02-14T12:08:26;0.68;;;0.65;;
28483;SDS011;15704;48.834;8.736;2024-02-14T12:10:53;3.85;;;0.70;;
28483;SDS011;15704;48.834;8.736;2024-02-14T12:13:21;2.38;;;0.80;;
28483;SDS011;15704;48.834;8.736;2024-02-14T12:15:49;0.68;;;0.68;;
28483;SDS011;15704;48.834;8.736;2024-02-14T12:18:19;0.90;;;0.80;;
28483;SDS011;15704;48.834;8.736;2024-02-14T12:20:47;0.82;;;0.73;;
28483;SDS011;15704;48.834;8.736;2024-02-14T12:23:22;3.22;;;1.00;;
28483;SDS011;15704;48.834;8.736;2024-02-14T12:25:53;1.00;;;0.87;;
28483;SDS011;15704;48.834;8.736;2024-02-14T12:28:20;0.70;;;0.70;;
28483;SDS011;15704;48.834;8.736;2024-02-14T12:33:16;0.95;;;0.80;;
28483;SDS011;15704;48.834;8.736;2024-02-14T12:35:44;0.65;;;0.60;;
28483;SDS011;15704;48.834;8.736;2024-02-14T12:38:13;0.52;;;0.52;;
28483;SDS011;15704;48.834;8.736;2024-02-14T12:40:41;1.05;;;0.70;;
28483;SDS011;15704;48.834;8.736;2024-02-14T12:43:08;0.77;;;0.70;;
28483;SDS011;15704;48.834;8.736;2024-02-14T12:45:37;0.77;;;0.77;;
28483;SDS011;15704;48.834;8.736;2024-02-14T12:48:05;1.17;;;0.88;;
28483;SDS011;15704;48.834;8.736;2024-02-14T12:50:32;0.90;;;0.73;;
28483;SDS011;15704;48.834;8.736;2024-02-14T12:53:01;0.85;;;0.68;;
28483;SDS011;15704;48.834;8.736;2024-02-14T12:55:28;1.23;;;0.68;;
28483;SDS011;15704;48.834;8.736;2024-02-14T12:57:55;1.08;;;0.80;;
28483;SDS011;15704;48.834;8.736;2024-02-14T13:00:23;0.70;;;0.70;;
28483;SDS011;15704;48.834;8.736;2024-02-14T13:02:50;1.15;;;0.85;;
28483;SDS011;15704;48.834;8.736;2024-02-14T13:05:18;0.90;;;0.60;;
28483;SDS011;15704;48.834;8.736;2024-02-14T13:07:46;0.50;;;0.50;;
28483;SDS011;15704;48.834;8.736;2024-02-14T13:10:13;0.70;;;0.70;;
28483;SDS011;15704;48.834;8.736;2024-02-14T13:12:40;0.60;;;0.60;;
28483;SDS011;15704;48.834;8.736;2024-02-14T13:15:07;1.02;;;0.57;;
28483;SDS011;15704;48.834;8.736;2024-02-14T13:17:34;0.60;;;0.60;;
28483;SDS011;15704;48.834;8.736;2024-02-14T13:20:02;0.75;;;0.63;;
28483;SDS011;15704;48.834;8.736;2024-02-14T13:22:29;0.57;;;0.50;;
28483;SDS011;15704;48.834;8.736;2024-02-14T13:24:56;1.00;;;0.82;;
28483;SDS011;15704;48.834;8.736;2024-02-14T13:27:25;0.50;;;0.50;;
28483;SDS011;15704;48.834;8.736;2024-02-14T13:29:52;0.55;;;0.55;;
28483;SDS011;15704;48.834;8.736;2024-02-14T13:32:19;0.70;;;0.70;;
28483;SDS011;15704;48.834;8.736;2024-02-14T13:34:46;0.50;;;0.50;;
28483;SDS011;15704;48.834;8.736;2024-02-14T13:37:14;0.73;;;0.70;;
28483;SDS011;15704;48.834;8.736;2024-02-14T13:39:42;0.60;;;0.60;;
28483;SDS011;15704;48.834;8.736;2024-02-14T13:42:10;0.50;;;0.50;;
28483;SDS011;15704;48.834;8.736;2024-02-14T13:44:37;0.60;;;0.60;;
28483;SDS011;15704;48.834;8.736;2024-02-14T13:47:04;0.60;;;0.60;;
28483;SDS011;15704;48.834;8.736;2024-02-14T13:49:31;0.50;;;0.50;;
28483;SDS011;15704;48.834;8.736;2024-02-14T13:51:58;0.60;;;0.60;;
28483;SDS011;15704;48.834;8.736;2024-02-14T13:54:25;0.45;;;0.45;;
28483;SDS011;15704;48.834;8.736;2024-02-14T13:56:54;0.60;;;0.60;;
28483;SDS011;15704;48.834;8.736;2024-02-14T13:59:22;0.50;;;0.50;;
28483;SDS011;15704;48.834;8.736;2024-02-14T14:01:49;0.38;;;0.38;;
28483;SDS011;15704;48.834;8.736;2024-02-14T14:04:16;0.60;;;0.50;;
28483;SDS011;15704;48.834;8.736;2024-02-14T14:06:43;0.47;;;0.47;;
28483;SDS011;15704;48.834;8.736;2024-02-14T14:09:10;0.90;;;0.70;;
28483;SDS011;15704;48.834;8.736;2024-02-14T14:11:39;0.95;;;0.88;;
28483;SDS011;15704;48.834;8.736;2024-02-14T14:14:07;0.50;;;0.50;;
28483;SDS011;15704;48.834;8.736;2024-02-14T14:16:35;0.50;;;0.50;;
28483;SDS011;15704;48.834;8.736;2024-02-14T14:19:01;0.70;;;0.70;;
28483;SDS011;15704;48.834;8.736;2024-02-14T14:21:30;0.40;;;0.40;;
28483;SDS011;15704;48.834;8.736;2024-02-14T14:23:57;0.60;;;0.60;;
28483;SDS011;15704;48.834;8.736;2024-02-14T14:26:24;0.73;;;0.50;;
28483;SDS011;15704;48.834;8.736;2024-02-14T14:28:51;0.50;;;0.50;;
28483;SDS011;15704;48.834;8.736;2024-02-14T14:31:20;0.68;;;0.50;;
28483;SDS011;15704;48.834;8.736;2024-02-14T14:33:47;0.77;;;0.60;;
28483;SDS011;15704;48.834;8.736;2024-02-14T14:36:15;0.60;;;0.60;;
28483;SDS011;15704;48.834;8.736;2024-02-14T14:38:42;0.55;;;0.50;;
28483;SDS011;15704;48.834;8.736;2024-02-14T14:41:09;0.85;;;0.60;;
28483;SDS011;15704;48.834;8.736;2024-02-14T14:43:37;0.57;;;0.57;;
28483;SDS011;15704;48.834;8.736;2024-02-14T14:46:03;0.60;;;0.60;;
28483;SDS011;15704;48.834;8.736;2024-02-14T14:48:30;0.65;;;0.60;;
28483;SDS011;15704;48.834;8.736;2024-02-14T14:50:58;0.57;;;0.57;;
28483;SDS011;15704;48.834;8.736;2024-02-14T14:53:24;0.45;;;0.45;;
28483;SDS011;15704;48.834;8.736;2024-02-14T14:55:55;0.50;;;0.50;;